Portada
METAR-TAF:

METAR-TAF

Aeroports :

Taipei, Taiwan

latitud: 25-04N, longitud: 121-33E, altitud: 6 m

Observació

L'informe es va fer fa 37 minuts, a les 22:30 UTC
Vent 4 kt del Oest, variant entre Sud-Oest i Nord-Oest
Temperatura 31°C
Humitat 75%
Pressió 1007 hPa
Visibilitat 10 km o més
Escasses núvols a una alçada de 3000 ft
Núvols disperses a una alçada de 25000 ft

METAR: RCSS 122230Z 27004KT 230V310 9999 FEW030 SCT250 31/26 Q1007 NOSIG RMK A2976

Hora: 07:07 (23:07 UTC)

Pronòstic

L'informe es va fer fa 6 hores i 7 minuts, a les 17:00 UTC
Pronòstic vàlid del 12 a les 18 UTC al 13 a les 18 UTC
Vent 5 kt del Oest
Visibilitat 10 km o més
Escasses núvols a una alçada de 1500 ft
Núvols disperses a una alçada de 5000 ft
Evolucionant progressivament
l' 13 a les 08 UTC al 13 a les 10 UTC
Vent 5 kt del Est

TAF: RCSS 121700Z 1218/1318 28005KT 9999 FEW015 SCT050 BECMG 1308/1310 09005KT

Observacions i pronòstics meteorològics de més de 4000 aeroports (METAR i TAF).

Les estacions disponibles són els punts grocs i vermells al mapa.

Posi el ratolí al punt desitjat per veure el nom de l'estació.

Feu clic per veure les observacions i els pronòstics meteorològics.

Per canviar el mapa: feu clic els botons verds amb una creu de color negre per apropar; al botó verd amb un guió per allunyar la imatge; o en les fletxes verdes per a mapes adjacents.


METAR-TAF: